Date,TemperatureHighF,TemperatureAvgF,TemperatureLowF,DewpointHighF,DewpointAvgF,DewpointLowF,HumidityHigh,HumidityAvg,HumidityLow,PressureMaxIn,PressureMinIn,WindSpeedMaxMPH,WindSpeedAvgMPH,GustSpeedMaxMPH,PrecipitationSumIn
2012-1-1,35.9,32.0,27.0,34.0,29.4,25.0,92,90,85,30.20,30.10,2,0,4,0.02
2012-1-2,45.1,38.6,33.8,37.0,34.7,32.0,94,86,72,30.19,30.04,4,0,5,0.01
2012-1-3,51.3,43.0,37.0,43.0,38.7,34.0,95,85,71,30.26,30.05,8,1,12,0.02
2012-1-4,46.2,40.7,37.1,43.0,37.5,33.0,94,88,75,30.16,29.92,7,2,10,0.05
2012-1-5,43.7,41.3,37.5,39.0,33.7,27.0,90,75,55,30.06,29.21,14,3,22,0.07
2012-1-6,46.0,41.1,36.9,35.0,33.0,31.0,79,73,65,29.89,29.26,12,3,19,0.00
2012-1-7,49.0,39.0,34.9,34.0,30.0,26.0,91,71,50,30.06,29.87,5,2,18,0.09
2012-1-8,45.5,40.2,36.0,38.0,36.0,34.0,93,85,72,29.98,29.83,6,2,13,0.03
2012-1-9,47.6,40.3,35.1,39.0,34.7,31.0,91,80,68,30.26,29.98,5,1,11,0.00
2012-1-10,44.8,39.0,35.2,41.0,35.0,31.0,93,86,80,30.38,30.19,6,1,11,0.09
2012-1-11,47.7,41.8,38.1,37.0,34.6,32.0,81,75,61,30.46,30.37,5,2,12,0.00
2012-1-12,55.0,45.7,42.4,40.0,36.2,32.0,82,70,54,30.39,29.99,4,1,11,0.00
2012-1-13,49.4,41.4,35.7,38.0,32.8,29.0,80,72,56,30.00,29.93,12,2,13,0.03
2012-1-14,42.2,36.8,31.4,33.0,28.3,24.0,86,72,57,30.02,29.93,8,2,15,0.02
2012-1-15,40.7,33.8,30.4,26.0,23.4,21.0,80,67,49,30.12,29.99,8,2,20,0.01
2012-1-16,39.7,31.7,25.7,25.0,22.5,18.0,83,69,42,30.25,30.12,4,1,8,0.00
2012-1-17,36.3,32.4,27.9,33.0,28.0,22.0,88,84,73,30.34,30.14,5,1,12,0.01
2012-1-18,37.2,33.1,30.6,33.0,28.3,25.0,89,82,72,30.44,30.34,5,1,7,0.02
2012-1-19,41.6,37.3,30.3,39.0,33.3,25.0,92,85,70,30.35,29.88,6,1,11,0.19
2012-1-20,44.3,40.9,36.2,42.0,36.4,30.0,94,84,74,29.88,29.79,7,1,11,0.07
2012-1-21,50.7,38.6,33.1,34.0,30.5,27.0,92,74,50,30.00,29.69,8,2,18,0.10
2012-1-22,50.6,42.2,34.4,38.0,35.2,31.0,94,77,53,29.78,29.57,7,2,21,0.43
2012-1-23,52.0,44.2,39.4,38.0,35.0,32.0,89,71,53,29.98,29.73,6,1,18,0.04
2012-1-24,43.5,40.5,37.5,36.0,34.2,31.0,84,78,71,30.03,29.94,4,1,8,0.00
2012-1-25,48.1,37.4,32.4,31.0,24.4,20.0,84,61,37,30.11,30.03,7,1,18,0.00
2012-1-26,44.0,33.2,26.3,31.0,23.6,20.0,87,69,44,30.24,30.10,6,1,13,0.00
2012-1-27,39.9,30.8,22.8,27.0,24.0,20.0,90,77,58,30.47,30.25,5,0,7,0.00
2012-1-28,40.0,30.2,21.3,27.0,22.4,17.0,85,74,54,30.50,30.45,6,1,8,0.00
2012-1-29,37.8,31.1,24.8,27.0,23.9,17.0,87,75,54,30.52,30.46,9,1,13,0.00
2012-1-30,40.3,30.5,21.9,17.0,12.2,4.0,77,49,26,30.52,30.46,6,2,10,0.00
2012-1-31,36.6,26.9,18.4,16.0,12.0,9.0,75,55,35,30.52,30.39,8,2,14,0.00
2012-2-1,35.1,24.9,18.5,14.0,8.4,6.0,65,51,33,30.41,30.31,7,1,11,0.00
2012-2-2,30.4,20.7,15.4,5.0,-0.9,-4.0,56,40,24,30.46,30.34,5,1,9,0.00
2012-2-3,23.2,17.7,10.9,3.0,-0.6,-4.0,68,46,31,30.47,30.39,6,2,12,0.00
2012-2-4,22.9,21.2,18.0,18.0,8.3,-7.0,89,62,27,30.41,30.30,9,2,13,0.00
2012-2-5,24.4,16.3,9.6,15.0,10.1,5.0,82,77,65,30.47,30.38,5,0,7,0.01
2012-2-6,19.6,13.6,5.7,14.0,8.3,1.0,86,79,72,30.46,30.27,5,1,8,0.00
2012-2-7,31.7,23.6,18.9,21.0,16.2,13.0,83,73,60,30.42,30.17,4,1,8,0.05
2012-2-8,31.2,21.0,12.1,18.0,12.6,8.0,83,71,53,30.59,30.42,5,1,6,0.11
2012-2-9,26.4,20.1,13.8,15.0,12.9,9.0,82,74,60,30.49,30.33,5,1,8,0.01
2012-2-10,27.9,16.7,8.7,14.0,9.3,4.0,84,73,56,30.57,30.45,4,1,6,0.01
2012-2-11,31.9,19.5,8.0,14.0,8.9,3.0,83,65,43,30.53,30.38,4,1,9,0.01
2012-2-12,33.6,24.0,15.8,16.0,12.6,8.0,79,63,38,30.42,30.24,7,1,9,0.02
2012-2-13,30.4,25.0,20.4,17.0,13.5,11.0,76,62,47,30.24,30.01,4,1,10,0.00
2012-2-14,38.3,27.1,17.2,23.0,19.2,13.0,85,73,51,30.00,29.89,5,1,8,0.00
2012-2-15,36.7,30.5,23.5,31.0,24.5,17.0,92,78,68,29.89,29.38,11,3,18,0.05
2012-2-16,39.7,33.9,30.0,27.0,24.4,21.0,81,69,54,30.12,29.50,10,3,28,0.07
2012-2-17,38.4,33.8,30.2,35.0,29.0,23.0,90,83,71,30.12,29.98,5,1,11,0.13
2012-2-18,50.7,41.8,36.9,37.0,33.9,32.0,86,75,52,30.14,30.05,7,1,12,0.02
2012-2-19,40.1,35.8,31.0,33.0,31.3,28.0,90,84,73,30.24,30.06,3,0,6,0.01
2012-2-20,46.3,39.3,30.8,34.0,30.0,23.0,90,70,54,30.54,30.24,4,1,8,0.00
2012-2-21,46.5,35.2,27.2,28.0,25.0,22.0,84,68,45,30.56,30.47,5,1,10,0.00
2012-2-22,54.2,39.4,27.4,35.0,29.6,23.0,86,70,44,30.49,30.39,6,1,10,0.00
2012-2-23,46.6,38.0,27.7,37.0,31.1,25.0,90,77,57,30.39,30.11,7,1,11,0.00
2012-2-24,58.0,48.1,40.1,46.0,41.3,36.0,87,78,61,30.17,30.02,7,2,12,0.00
2012-2-25,58.0,50.5,43.2,43.0,37.3,30.0,80,62,42,30.04,29.94,10,2,23,0.00
2012-2-26,54.6,44.2,34.9,35.0,30.5,19.0,74,60,41,30.07,29.88,7,2,14,0.00
2012-2-27,48.1,36.9,29.3,22.0,18.8,16.0,67,49,31,30.20,30.08,6,2,12,0.00
2012-2-28,41.9,34.6,32.0,40.0,28.0,18.0,96,78,51,30.21,29.84,7,1,12,0.18
2012-2-29,63.2,51.1,42.2,46.0,38.5,31.0,91,65,36,30.15,29.80,9,3,16,0.02
2012-3-1,58.0,48.3,36.0,46.0,36.8,30.0,81,66,44,30.26,30.14,6,1,9,0.00
2012-3-2,61.7,51.7,43.9,46.0,41.9,34.0,89,70,55,30.16,30.09,11,2,19,0.00
2012-3-3,58.1,46.8,34.0,34.0,26.9,19.0,74,49,28,30.26,30.17,6,1,9,0.00
2012-3-4,52.1,40.5,28.2,27.0,23.0,20.0,74,52,34,30.27,30.18,7,1,10,0.00
2012-3-5,51.7,39.1,28.2,24.0,21.9,19.0,70,52,32,30.20,30.12,6,1,10,0.00
2012-3-6,47.7,35.2,24.5,24.0,18.5,11.0,78,53,29,30.46,30.19,11,1,13,0.00
2012-3-7,40.1,33.2,24.3,18.0,13.4,11.0,63,45,32,30.50,30.26,6,2,11,0.00
2012-3-8,41.1,35.2,28.1,26.0,19.7,13.0,68,54,44,30.41,30.20,5,1,9,0.00
2012-3-9,51.3,40.0,30.2,35.0,29.4,26.0,86,67,46,30.60,30.41,9,1,9,0.00
2012-3-10,54.3,40.8,28.2,32.0,27.2,24.0,88,62,35,30.62,30.38,4,1,9,0.00
2012-3-11,56.0,44.9,39.6,42.0,32.2,24.0,83,62,49,30.38,30.02,10,2,19,0.02
2012-3-12,58.1,46.7,37.5,39.0,29.3,21.0,80,53,29,30.21,30.10,7,2,15,0.00
2012-3-13,63.3,49.5,42.1,42.0,38.8,37.0,85,68,42,30.28,30.22,8,1,10,0.00
2012-3-14,59.9,48.6,43.5,40.0,37.8,35.0,78,67,47,30.28,30.21,7,2,12,0.00
2012-3-15,64.3,50.7,41.7,39.0,32.5,26.0,79,54,26,30.39,30.28,7,2,12,0.00
2012-3-16,67.0,50.2,32.8,42.0,33.4,27.0,83,55,33,30.40,30.25,6,1,11,0.00
2012-3-17,70.7,55.8,38.5,44.0,34.8,32.0,81,49,26,30.25,30.09,7,2,16,0.00
2012-3-18,72.8,59.5,46.4,46.0,38.0,32.0,61,46,29,30.10,30.01,10,3,18,0.00
2012-3-19,68.9,57.4,48.3,45.0,40.4,32.0,72,54,41,30.39,30.01,8,2,19,0.00
2012-3-20,68.5,53.3,42.9,35.0,28.8,14.0,64,43,13,30.56,30.40,6,1,12,0.00
2012-3-21,71.2,57.9,42.6,37.0,30.2,22.0,51,36,24,30.55,30.44,6,1,11,0.00
2012-3-22,70.5,56.7,45.4,45.0,39.7,34.0,73,55,36,30.50,30.36,4,0,8,0.00
2012-3-23,70.6,56.5,44.1,44.0,39.0,37.0,79,55,31,30.38,30.21,6,1,8,0.00
2012-3-24,74.5,59.6,44.0,49.0,38.6,35.0,75,49,29,30.25,30.15,6,1,10,0.00
2012-3-25,74.3,59.6,43.0,43.0,35.3,23.0,74,43,25,30.22,30.12,7,1,11,0.00
2012-3-26,68.6,57.4,48.6,35.0,27.8,19.0,55,35,16,30.40,30.19,7,2,10,0.00
2012-3-27,65.5,54.4,38.0,38.0,27.9,22.0,55,37,26,30.43,30.09,10,2,14,0.00
2012-3-28,72.9,61.2,49.7,43.0,38.7,34.0,57,45,31,30.25,29.99,8,2,11,0.00
2012-3-29,69.1,58.9,45.9,42.0,36.4,33.0,71,45,29,29.98,29.73,10,2,20,0.00
2012-3-30,60.0,50.4,44.0,43.0,37.6,33.0,86,64,39,29.75,29.68,12,2,19,0.06
2012-3-31,63.8,52.6,43.0,42.0,38.0,33.0,75,59,39,29.72,29.50,15,3,22,0.00
2012-4-1,54.4,43.0,35.1,33.0,25.8,21.0,74,52,32,29.96,29.66,9,2,17,0.00
2012-4-2,64.5,51.1,36.0,29.0,25.2,21.0,59,39,23,29.95,29.78,10,2,15,0.00
2012-4-3,49.8,49.8,49.8,28.0,28.0,28.0,44,44,44,29.80,29.80,2,2,4,0.00
2012-4-5,67.0,59.4,62.2,52.0,39.3,-99.9,68,56,53,29.77,29.73,5,-66,7,0.00
2012-4-6,70.0,57.4,48.7,57.0,50.9,43.0,93,79,59,29.77,29.64,7,1,11,0.39
2012-4-7,67.1,52.3,45.2,50.0,44.2,40.0,91,76,45,29.67,29.48,8,1,12,0.36
2012-4-8,53.1,44.4,38.1,39.0,28.7,22.0,79,56,40,29.83,29.54,7,2,17,0.00
2012-4-9,50.0,41.8,34.8,25.0,21.8,19.0,61,46,32,29.92,29.83,7,1,9,0.00
2012-4-10,54.5,44.4,29.4,31.0,24.1,21.0,77,48,28,29.97,29.77,7,2,15,0.00
2012-4-11,66.6,53.5,42.1,38.0,32.3,27.0,63,46,28,29.77,29.55,12,3,20,0.00
2012-4-12,57.0,51.5,45.3,47.0,40.8,35.0,83,68,52,29.68,29.51,5,1,11,0.03
2012-4-13,64.5,55.7,39.2,45.0,40.3,36.0,91,59,37,29.72,29.57,9,1,10,0.00
2012-4-14,57.8,54.6,51.7,47.0,44.3,41.0,77,68,55,29.56,29.39,6,1,12,0.02
2012-4-15,67.1,56.8,51.1,52.0,47.2,45.0,84,71,56,29.51,29.38,6,1,8,0.00
2012-4-16,57.5,51.3,45.1,49.0,44.9,39.0,90,79,69,29.76,29.51,7,1,10,0.00
2012-4-17,57.1,49.6,45.1,43.0,41.5,40.0,85,74,59,29.80,29.71,5,1,9,0.00
2012-4-18,62.0,52.5,44.1,41.0,39.3,37.0,85,63,42,29.73,29.48,5,1,12,0.00
2012-4-19,65.1,55.7,47.2,47.0,42.5,40.0,80,63,44,29.49,29.40,10,2,13,0.00
2012-4-20,69.1,57.7,43.0,47.0,42.8,38.0,91,61,35,29.54,29.43,13,2,14,0.00
2012-4-21,65.0,56.8,51.3,51.0,46.8,42.0,90,70,53,29.75,29.54,7,1,11,0.05
2012-4-22,70.2,57.2,47.3,49.0,44.4,42.0,81,64,41,29.80,29.73,6,2,12,0.02
2012-4-23,69.4,58.0,45.9,49.0,41.7,37.0,83,58,34,29.88,29.75,12,2,14,0.00
2012-4-24,69.5,57.3,50.2,55.0,48.5,43.0,90,75,42,29.74,29.57,12,4,21,0.13
2012-4-25,67.7,58.4,50.1,49.0,43.9,40.0,85,61,41,29.90,29.66,6,1,12,0.00
2012-4-26,71.5,60.9,48.6,47.0,45.3,43.0,85,59,39,30.02,29.91,10,3,17,0.00
2012-4-27,77.9,65.9,49.2,51.0,46.7,43.0,84,53,30,30.16,30.02,9,2,12,0.00
2012-4-28,84.3,71.7,53.0,52.0,49.0,47.0,81,48,27,30.22,30.11,12,2,17,0.00
2012-4-29,84.9,73.0,56.9,52.0,45.1,36.0,74,41,19,30.13,29.96,16,3,25,0.00
2012-4-30,87.8,73.8,56.8,53.0,47.8,44.0,70,42,24,30.03,29.94,7,1,11,0.00
2012-5-1,90.6,73.8,57.1,54.0,48.5,45.0,71,44,23,30.02,29.92,4,1,9,0.00
2012-5-2,92.8,74.1,57.6,55.0,48.7,45.0,75,45,22,29.95,29.79,5,1,10,0.00
2012-5-3,84.9,72.7,61.0,58.0,52.6,48.0,69,51,35,29.80,29.67,8,1,12,0.00
2012-5-4,77.2,66.5,59.8,59.0,54.4,49.0,80,66,44,29.71,29.65,7,2,19,0.01
2012-5-5,79.2,68.5,55.1,54.0,48.3,41.0,83,52,31,29.74,29.68,11,3,18,0.00
2012-5-6,78.1,69.5,56.4,51.0,48.2,46.0,71,48,35,29.85,29.74,10,2,17,0.00
2012-5-7,66.2,59.8,57.1,58.0,54.3,48.0,89,82,52,30.00,29.85,4,0,6,0.19
2012-5-8,73.6,65.5,52.2,53.0,49.2,45.0,89,58,38,30.06,30.00,9,1,9,0.01
2012-5-9,76.3,63.8,51.0,56.0,49.7,45.0,92,63,34,30.18,30.10,4,1,8,0.00
2012-5-10,83.9,67.8,51.1,56.0,48.3,45.0,83,54,27,30.27,30.19,5,1,9,0.00
2012-5-11,86.6,72.1,54.2,56.0,49.2,46.0,79,48,27,30.31,30.18,7,1,9,0.00
2012-5-12,90.9,71.1,55.2,61.0,53.4,46.0,77,56,31,30.17,30.00,10,2,19,0.00
2012-5-13,61.5,55.2,49.7,47.0,42.2,34.0,88,64,43,30.25,30.12,9,2,14,0.19
2012-5-14,57.9,53.5,49.3,48.0,40.6,34.0,86,63,49,30.13,29.93,10,3,17,0.02
2012-5-15,65.7,56.0,51.1,47.0,44.8,43.0,81,67,49,29.93,29.75,5,1,9,0.00
2012-5-16,71.1,59.2,51.8,48.0,44.6,41.0,80,60,43,29.85,29.70,15,2,20,0.00
2012-5-17,67.5,56.1,48.7,41.0,35.8,30.0,63,48,30,30.06,29.85,12,2,21,0.00
2012-5-18,69.1,56.8,41.0,43.0,35.9,30.0,74,48,30,30.11,30.02,6,1,11,0.00
2012-5-19,75.0,62.2,45.5,50.0,46.8,41.0,86,59,41,30.10,29.97,8,2,10,0.00
2012-5-20,81.5,68.4,50.4,54.0,51.0,46.0,88,57,35,29.99,29.84,8,2,13,0.00
2012-5-21,81.1,72.2,58.1,58.0,54.7,53.0,84,56,38,29.85,29.71,12,3,18,0.00
2012-5-22,80.0,68.6,60.7,66.0,59.1,54.0,93,73,52,29.73,29.60,6,2,16,0.51
2012-5-23,85.3,70.7,57.4,66.0,59.0,55.0,94,69,40,29.94,29.69,10,2,19,0.17
2012-5-24,83.8,74.4,68.6,62.0,54.8,45.0,65,51,30,30.02,29.91,13,4,26,0.02
2012-5-25,77.7,69.7,59.4,51.0,45.1,39.0,59,43,28,30.09,30.01,17,5,23,0.00
2012-5-26,76.4,67.2,55.8,44.0,39.8,37.0,54,38,27,30.10,30.01,10,2,15,0.00
2012-5-27,75.8,67.0,55.0,48.0,42.6,39.0,59,42,29,30.06,29.95,10,2,14,0.01
2012-5-28,73.7,59.2,48.6,53.0,48.2,44.0,86,69,38,29.96,29.83,11,1,14,0.09
2012-5-29,73.3,62.5,50.3,56.0,51.1,47.0,92,69,45,29.88,29.81,4,1,9,0.00
2012-5-30,82.6,70.1,55.8,57.0,51.8,45.0,86,56,28,29.97,29.86,5,1,14,0.00
2012-5-31,81.7,71.7,59.9,58.0,52.1,45.0,77,53,30,30.03,29.94,7,1,14,0.00
2012-6-1,76.3,65.9,59.8,61.0,54.1,48.0,87,67,45,29.94,29.82,7,1,18,0.09
2012-6-2,64.6,59.5,54.2,55.0,50.3,45.0,87,72,57,30.05,29.94,4,0,9,0.00
2012-6-3,84.4,70.6,53.8,64.0,57.5,51.0,92,66,46,29.98,29.73,8,2,19,0.00
2012-6-4,83.8,73.9,62.1,63.0,60.0,57.0,87,63,43,29.78,29.70,7,2,18,0.24
2012-6-5,71.3,60.9,52.2,58.0,52.1,44.0,88,74,51,29.92,29.69,8,2,18,0.06
2012-6-6,76.1,65.1,50.5,53.0,47.8,42.0,83,56,32,29.93,29.82,9,2,15,0.00
2012-6-7,84.7,72.9,60.4,59.0,55.2,51.0,78,55,39,29.86,29.76,10,1,11,0.00
2012-6-8,86.9,76.1,63.7,64.0,61.0,58.0,83,61,45,29.82,29.75,5,1,11,0.00
2012-6-9,85.9,74.2,64.1,66.0,62.1,58.0,91,67,50,29.95,29.82,7,1,10,0.24
2012-6-10,78.0,69.3,62.1,67.0,63.9,60.0,96,83,66,29.96,29.69,6,1,9,0.09
2012-6-11,74.1,66.7,60.8,66.0,59.8,56.0,92,79,60,29.70,29.65,5,1,10,0.04
2012-6-12,71.5,64.7,59.2,64.0,60.2,56.0,92,85,69,29.67,29.56,7,2,11,0.21
2012-6-13,71.6,63.6,58.6,60.0,56.6,53.0,93,79,64,29.94,29.61,4,1,9,0.00
2012-6-14,78.7,68.3,57.7,59.0,54.1,50.0,85,62,43,30.09,29.94,8,1,10,0.00
2012-6-15,81.7,69.3,56.0,59.0,54.6,50.0,85,62,41,30.16,30.09,7,1,13,0.00
2012-6-16,86.6,75.3,58.9,61.0,57.6,55.0,88,57,34,30.19,30.11,8,2,12,0.00
2012-6-17,91.6,79.5,61.3,64.0,59.2,56.0,85,53,33,30.16,30.09,10,1,12,0.00
2012-6-18,91.6,81.0,66.4,67.0,61.3,59.0,80,54,35,30.13,29.99,8,2,16,0.00
2012-6-19,92.6,82.0,66.6,64.0,59.8,56.0,80,50,30,30.06,29.97,7,2,14,0.00
2012-6-20,94.2,82.9,69.5,66.0,60.9,56.0,77,50,28,30.00,29.81,7,1,17,0.00
2012-6-21,96.3,82.5,70.3,68.0,63.8,60.0,73,55,38,29.84,29.73,5,1,11,0.00
2012-6-22,85.3,75.9,66.8,72.0,65.6,60.0,92,72,55,30.04,29.75,7,1,14,0.96
2012-6-23,88.4,77.3,64.4,66.0,59.9,53.0,85,57,33,30.15,30.04,7,1,12,0.00
2012-6-24,87.9,76.3,62.2,61.0,56.8,53.0,84,54,31,30.15,29.92,5,1,10,0.00
2012-6-25,75.7,68.6,61.2,63.0,59.3,54.0,92,73,52,29.95,29.88,3,0,7,0.57
2012-6-26,77.7,69.0,59.8,55.0,51.4,48.0,74,55,39,30.09,29.96,5,1,14,0.00
2012-6-27,77.8,67.7,54.9,54.0,50.4,47.0,86,56,36,30.14,30.01,8,1,12,0.00
2012-6-28,85.8,71.9,58.2,63.0,57.4,49.0,80,62,45,30.01,29.91,5,1,8,0.00
2012-6-29,88.5,77.5,64.1,65.0,62.7,60.0,91,63,42,29.98,29.90,11,2,11,0.00
2012-6-30,94.3,83.8,68.4,68.0,62.8,58.0,80,52,30,29.98,29.91,8,2,10,0.00
2012-7-1,98.5,87.1,70.7,70.0,64.1,60.0,79,49,29,29.98,29.90,8,2,13,0.00
2012-7-2,97.3,87.9,73.1,70.0,63.4,60.0,73,46,32,30.03,29.94,7,2,13,0.00
2012-7-3,96.7,86.5,74.9,64.0,59.5,53.0,66,42,24,30.00,29.86,11,2,15,0.00
2012-7-4,97.0,85.1,71.2,67.0,61.3,57.0,70,47,28,29.91,29.80,6,2,12,0.00
2012-7-5,100.6,85.2,69.3,67.0,61.6,57.0,76,48,25,29.89,29.79,6,1,17,0.27
2012-7-6,100.1,84.9,70.5,68.0,62.4,55.0,78,50,24,29.90,29.75,7,1,13,0.04
2012-7-7,96.0,82.7,68.2,68.0,65.3,61.0,88,59,35,29.90,29.79,5,1,13,0.10
2012-7-8,97.9,85.9,71.4,69.0,63.7,55.0,78,50,32,29.83,29.73,10,2,16,0.00
2012-7-9,96.1,83.6,72.3,67.0,60.9,55.0,70,48,30,29.85,29.76,6,1,12,0.00
2012-7-10,88.8,79.5,69.6,67.0,58.7,51.0,82,52,29,29.92,29.85,4,1,10,0.02
2012-7-11,91.7,79.5,68.0,63.0,59.2,54.0,80,51,33,29.92,29.80,8,1,11,0.08
2012-7-12,81.6,71.2,65.8,64.0,57.5,48.0,89,66,33,30.00,29.83,9,1,11,0.04
2012-7-13,76.0,68.4,59.6,61.0,52.9,49.0,80,59,42,30.00,29.84,4,1,9,0.02
2012-7-14,86.4,69.5,55.4,64.0,57.3,52.0,91,68,41,29.86,29.76,5,2,14,0.06
2012-7-15,80.1,66.3,59.7,62.0,58.2,55.0,90,76,49,30.00,29.81,6,1,10,0.17
2012-7-16,77.6,66.1,59.9,56.0,53.0,50.0,82,64,43,30.21,30.00,11,2,14,0.00
2012-7-17,78.3,67.9,57.2,54.0,51.2,47.0,79,57,36,30.21,30.08,6,1,11,0.00
2012-7-18,83.0,71.4,60.7,59.0,54.9,52.0,81,58,37,30.13,30.00,5,1,15,0.00
2012-7-19,92.2,76.9,62.0,63.0,55.6,52.0,87,52,27,30.00,29.73,12,3,20,0.09
2012-7-20,84.2,72.6,64.1,63.0,57.2,49.0,90,62,34,29.98,29.85,8,1,10,0.03
2012-7-21,77.7,66.4,61.8,61.0,57.6,48.0,90,74,46,30.02,29.92,5,1,9,0.13
2012-7-22,82.0,69.2,60.3,58.0,54.7,50.0,89,63,35,30.20,30.01,10,2,14,0.00
2012-7-23,86.4,74.6,62.6,58.0,52.3,46.0,60,47,34,30.23,30.16,11,3,18,0.00
2012-7-24,87.8,75.2,66.9,65.0,59.3,54.0,89,59,40,30.18,29.98,10,2,15,0.22
2012-7-25,80.0,71.9,67.3,68.0,66.0,65.0,94,82,63,29.99,29.90,7,1,11,0.27
2012-7-26,83.2,72.7,66.5,72.0,66.6,63.0,93,82,62,29.96,29.92,5,0,10,0.00
2012-7-27,92.1,77.3,63.0,73.0,65.3,61.0,94,69,42,29.95,29.88,5,1,18,0.07
2012-7-28,91.5,79.7,67.4,70.0,66.0,63.0,92,66,41,29.91,29.81,6,1,8,0.00
2012-7-29,92.7,76.3,66.8,73.0,66.2,60.0,93,73,44,29.93,29.73,6,1,12,1.26
2012-7-30,87.0,75.0,66.7,68.0,63.1,53.0,91,68,45,30.03,29.87,7,1,11,0.01
2012-7-31,89.9,74.5,61.3,67.0,59.1,51.0,84,60,39,30.05,29.97,4,1,9,0.00
2012-8-1,92.7,77.2,62.8,64.0,58.6,55.0,83,56,30,30.02,29.94,6,1,10,0.00
2012-8-2,92.5,78.9,67.2,66.0,61.9,59.0,80,58,38,29.99,29.92,5,0,8,0.00
2012-8-3,93.9,79.7,66.6,68.0,64.7,62.0,86,62,36,29.95,29.89,3,1,13,0.00
2012-8-4,93.7,80.3,69.0,68.0,63.8,60.0,82,59,33,29.95,29.88,7,1,9,0.00
2012-8-5,96.6,83.8,72.0,69.0,63.9,57.0,77,54,31,29.93,29.83,8,2,19,0.00
2012-8-6,100.9,86.1,71.7,67.0,61.9,55.0,74,48,26,29.88,29.80,8,1,13,0.00
2012-8-7,88.7,77.6,68.8,64.0,56.8,50.0,71,50,33,30.13,29.83,11,2,12,0.00
2012-8-8,89.1,74.3,61.8,60.0,55.0,51.0,74,52,33,30.17,30.10,7,1,12,0.00
2012-8-9,88.2,74.4,60.2,57.0,51.1,46.0,75,47,26,30.14,30.07,9,1,11,0.00
2012-8-10,84.4,72.8,59.7,54.0,48.8,44.0,68,44,29,30.14,30.05,10,1,12,0.00
2012-8-11,75.9,64.9,55.2,53.0,48.7,44.0,76,57,38,30.08,29.98,4,1,11,0.00
2012-8-12,79.0,66.8,59.1,56.0,50.4,48.0,73,57,39,30.00,29.95,7,2,13,0.00
2012-8-13,80.5,68.2,53.9,54.0,48.5,40.0,86,52,28,30.00,29.92,5,1,12,0.00
2012-8-14,79.8,68.2,56.3,52.0,47.6,44.0,67,49,35,29.98,29.90,9,2,13,0.00
2012-8-15,85.4,72.2,57.8,54.0,49.9,48.0,70,48,28,29.98,29.89,9,1,15,0.00
2012-8-16,86.7,71.7,57.9,56.0,51.8,48.0,80,52,29,30.02,29.92,7,1,10,0.00
2012-8-17,84.9,73.7,65.6,58.0,55.2,50.0,69,54,36,30.12,30.02,7,1,10,0.00
2012-8-18,87.3,74.7,61.7,59.0,56.1,53.0,81,55,35,30.20,30.12,6,1,11,0.00
2012-8-19,87.9,75.4,60.8,57.0,54.1,52.0,76,50,32,30.26,30.16,6,1,11,0.00
2012-8-20,98.0,80.8,62.6,60.0,54.6,52.0,73,44,23,30.18,30.05,8,1,17,0.00
2012-8-21,99.1,82.0,66.4,63.0,57.5,53.0,69,46,24,30.07,29.95,4,1,10,0.00
2012-8-22,98.8,84.8,68.1,66.0,62.3,60.0,79,50,28,29.98,29.89,7,1,13,0.00
2012-8-23,94.7,82.8,73.8,68.0,63.1,60.0,66,53,34,29.96,29.88,5,1,15,0.00
2012-8-24,99.4,82.7,67.7,66.0,62.1,60.0,81,53,31,29.89,29.77,7,1,16,0.00
2012-8-25,99.1,83.6,68.1,62.0,59.6,58.0,73,47,27,29.84,29.77,10,1,12,0.00
2012-8-26,87.7,74.7,63.8,63.0,59.1,56.0,88,60,39,29.91,29.76,10,2,15,0.06
2012-8-27,81.8,70.1,61.7,60.0,52.8,47.0,87,56,35,30.13,29.89,8,2,15,0.01
2012-8-28,85.6,70.3,54.4,51.0,47.5,45.0,73,46,29,30.19,30.07,6,1,12,0.00
2012-8-29,88.9,72.2,57.9,56.0,50.8,48.0,72,50,26,30.14,30.05,6,1,9,0.00
2012-8-30,89.9,76.5,61.8,57.0,52.2,50.0,68,45,27,30.11,29.98,5,1,11,0.00
2012-8-31,91.2,78.0,62.6,58.0,51.7,45.0,68,43,21,29.98,29.84,6,2,9,0.00
2012-9-1,79.3,70.0,63.7,64.0,60.2,57.0,87,72,52,30.09,29.90,5,1,8,0.06
2012-9-2,88.7,75.4,60.6,63.0,57.5,54.0,90,58,32,30.17,30.09,7,1,13,0.00
2012-9-3,94.1,78.7,63.4,61.0,57.9,55.0,79,52,30,30.13,29.97,8,1,8,0.00
2012-9-4,87.8,76.6,66.2,63.0,60.2,57.0,79,58,41,30.02,29.96,4,0,8,0.00
2012-9-5,87.2,75.0,63.9,66.0,60.6,56.0,85,62,44,30.01,29.91,6,0,8,0.01
2012-9-6,84.5,71.9,61.2,61.0,53.9,45.0,74,54,38,30.20,29.91,6,1,12,0.00
2012-9-7,79.2,67.8,53.1,48.0,44.8,42.0,68,45,30,30.25,30.13,9,1,12,0.00
2012-9-8,86.9,73.5,59.4,55.0,51.3,47.0,68,47,32,30.14,30.05,6,1,11,0.00
2012-9-9,86.7,73.0,59.4,57.0,53.2,51.0,77,52,34,30.13,30.06,8,1,10,0.00
2012-9-10,85.8,73.0,59.7,56.0,52.0,49.0,75,50,29,30.16,30.05,7,1,15,0.00
2012-9-11,85.3,72.9,58.2,54.0,51.3,49.0,76,49,30,30.09,29.93,9,2,13,0.00
2012-9-12,83.7,72.6,61.9,58.0,51.0,48.0,75,49,31,29.92,29.67,11,2,13,0.00
2012-9-13,64.2,57.0,53.5,57.0,53.2,50.0,92,87,77,29.83,29.62,5,1,10,0.41
2012-9-14,64.3,59.4,56.0,57.0,55.1,53.0,93,86,75,29.93,29.83,3,1,8,0.03
2012-9-15,76.0,63.1,55.4,54.0,49.2,46.0,74,61,42,30.02,29.82,8,1,12,0.00
2012-9-16,76.7,62.8,51.5,53.0,49.7,46.0,86,64,40,30.11,30.01,7,1,11,0.00
2012-9-17,75.3,64.0,50.0,54.0,49.8,46.0,88,63,38,30.08,30.01,6,1,10,0.00
2012-9-18,76.3,66.3,57.0,58.0,56.0,52.0,87,71,52,30.05,29.90,4,0,8,0.00
2012-9-19,83.1,65.5,56.2,61.0,55.4,48.0,91,71,46,29.91,29.81,6,1,14,0.00
2012-9-20,62.7,55.1,51.3,49.0,45.8,39.0,91,72,50,30.20,29.92,9,2,14,0.36
2012-9-21,71.4,56.3,41.7,45.0,40.9,38.0,87,59,32,30.24,30.11,5,1,10,0.00
2012-9-22,69.3,57.1,43.9,52.0,44.8,39.0,88,66,45,30.11,29.95,7,1,12,0.00
2012-9-23,72.3,61.9,53.5,54.0,47.3,41.0,81,61,35,30.11,29.97,6,1,9,0.00
2012-9-24,77.6,64.6,51.4,61.0,53.7,45.0,84,69,54,29.97,29.62,8,1,10,0.00
2012-9-25,81.1,69.2,61.0,59.0,55.2,49.0,89,64,35,29.83,29.61,6,1,15,0.05
2012-9-26,83.3,71.1,56.2,58.0,55.2,52.0,87,60,40,29.86,29.82,20,4,22,0.00
2012-9-27,86.7,70.3,61.4,60.0,56.4,54.0,81,63,38,29.93,29.82,7,1,17,0.00
2012-9-28,79.4,66.1,58.0,55.0,50.2,47.0,77,59,32,30.16,29.93,8,1,10,0.00
2012-9-29,76.0,67.1,59.2,61.0,55.4,50.0,79,67,51,30.14,29.97,7,1,13,0.00
2012-9-30,81.3,68.1,62.2,59.0,56.3,52.0,85,67,43,30.15,29.96,4,1,10,0.00
2012-10-1,76.4,67.1,61.8,60.0,55.6,51.0,85,67,52,30.16,30.01,3,0,8,0.00
2012-10-2,72.6,63.0,58.7,65.0,59.7,56.0,93,89,75,30.05,29.96,5,0,8,1.06
2012-10-3,76.2,63.6,54.4,56.0,52.6,48.0,88,69,47,30.05,29.97,7,1,11,0.02
2012-10-4,74.0,63.9,47.9,55.0,51.5,45.0,91,66,46,30.07,29.93,5,1,9,0.00
2012-10-5,74.0,61.5,52.7,55.0,47.0,42.0,77,60,34,30.17,29.98,8,1,14,0.00
2012-10-6,78.5,62.9,50.6,57.0,51.8,47.0,89,69,47,30.11,29.95,7,1,14,0.00
2012-10-7,74.6,60.7,48.3,60.0,53.6,43.0,91,78,47,29.97,29.74,8,1,13,0.17
2012-10-8,63.6,53.0,43.2,46.0,41.4,38.0,85,66,45,30.16,29.98,9,1,13,0.00
2012-10-9,64.7,52.3,39.4,45.0,39.9,37.0,92,66,40,30.05,29.83,9,1,15,0.00
2012-10-10,66.5,56.0,47.5,46.0,40.0,36.0,77,57,36,29.95,29.87,5,1,8,0.00
2012-10-11,65.1,52.1,44.3,41.0,38.5,37.0,80,62,36,30.00,29.94,4,0,9,0.00
2012-10-12,57.8,52.7,47.7,44.0,42.2,40.0,81,69,54,30.01,29.95,6,1,10,0.00
2012-10-13,69.1,57.2,50.6,52.0,48.1,42.0,87,73,53,30.02,29.90,7,0,7,0.01
2012-10-14,55.9,54.4,52.4,54.0,51.5,49.0,94,90,84,29.89,29.79,8,1,10,0.02
2012-10-15,65.9,59.2,55.8,58.0,55.3,53.0,94,87,72,29.84,29.76,7,2,11,0.05
2012-10-16,60.3,55.8,48.3,59.0,53.6,44.0,95,92,85,29.98,29.72,6,1,10,0.58
2012-10-17,66.5,55.1,44.0,50.0,45.8,41.0,93,73,47,30.21,29.99,10,1,11,0.00
2012-10-18,66.3,57.0,49.7,52.0,47.8,45.0,89,73,50,30.26,30.16,7,1,10,0.00
2012-10-19,73.5,57.9,46.0,55.0,48.3,43.0,90,72,49,30.20,30.12,3,0,6,0.00
2012-10-20,74.3,59.4,48.2,57.0,51.0,45.0,91,76,53,30.14,30.09,5,0,6,0.00
2012-10-21,72.6,57.9,47.8,54.0,49.8,46.0,95,76,49,30.18,30.13,4,0,6,0.00
2012-10-22,71.8,56.5,45.0,55.0,48.7,43.0,92,77,51,30.21,30.15,2,0,5,0.00
2012-10-23,70.7,55.2,45.4,54.0,47.8,43.0,94,78,48,30.22,30.16,4,0,4,0.00
2012-10-24,55.8,49.2,43.6,49.0,45.7,41.0,93,87,76,30.20,30.08,3,0,6,0.00
2012-10-25,53.4,49.9,48.7,46.0,44.3,43.0,86,81,70,30.07,29.85,4,0,8,0.00
2012-10-26,58.3,50.1,43.6,47.0,44.4,40.0,91,81,58,29.88,29.66,6,1,6,0.08
2012-10-27,56.0,49.2,40.3,54.0,47.1,38.0,95,92,87,29.65,29.19,5,1,18,0.43
2012-10-28,43.7,39.2,36.2,39.0,35.2,31.0,93,85,76,29.84,29.32,14,2,21,0.14
2012-10-29,43.0,38.4,35.1,40.0,35.7,31.0,94,90,86,29.86,29.80,4,1,6,0.17
2012-10-30,51.0,41.1,32.4,34.0,30.6,27.0,88,68,46,29.90,29.83,5,1,15,0.00
2012-10-31,45.1,38.8,33.2,38.0,33.8,30.0,89,82,73,29.98,29.86,6,1,10,0.00
2012-11-1,49.5,43.6,37.4,48.0,39.8,32.0,95,86,73,29.85,29.47,5,0,8,0.44
2012-11-2,63.6,49.9,39.6,52.0,44.9,36.0,94,83,61,29.91,29.56,5,0,8,0.00
2012-11-3,50.0,44.5,37.8,48.0,42.2,35.0,98,92,88,29.99,29.90,3,0,5,0.00
2012-11-4,68.2,55.5,45.0,53.0,49.0,43.0,95,80,58,29.93,29.67,10,2,15,0.01
2012-11-5,59.6,52.2,45.2,55.0,47.2,40.0,90,83,76,29.78,29.43,10,2,18,0.13
2012-11-6,61.8,48.8,41.4,42.0,38.2,33.0,88,68,46,30.13,29.78,9,1,15,0.00
2012-11-7,56.0,45.4,36.9,41.0,36.3,32.0,85,71,48,30.27,30.13,7,1,12,0.00
2012-11-8,63.6,52.2,42.8,44.0,41.1,38.0,84,68,43,30.30,30.06,11,2,13,0.00
2012-11-9,59.6,48.3,40.3,45.0,40.9,37.0,88,76,55,30.19,30.02,4,0,11,0.00
2012-11-10,46.8,41.8,36.0,42.0,38.7,34.0,92,89,82,30.20,30.10,6,1,9,0.00
2012-11-11,54.0,47.4,40.6,44.0,41.1,38.0,92,80,62,30.14,30.07,6,1,13,0.00
2012-11-12,52.1,48.8,46.2,48.0,45.5,43.0,93,88,81,30.30,30.14,3,0,4,0.08
2012-11-13,58.0,50.5,46.7,51.0,46.9,41.0,94,87,74,30.49,30.30,2,0,5,0.01
2012-11-14,56.4,46.6,37.8,42.0,35.5,32.0,83,67,46,30.51,30.44,7,1,7,0.00
2012-11-15,46.8,41.9,38.9,41.0,39.0,36.0,93,89,80,30.45,30.31,4,0,6,0.00
2012-11-16,51.0,45.9,40.2,43.0,40.9,36.0,92,83,70,30.32,30.25,3,0,6,0.00
2012-11-17,52.8,44.3,38.7,43.0,39.9,36.0,92,85,66,30.24,30.09,4,0,7,0.00
2012-11-18,48.1,45.6,42.6,44.0,41.7,39.0,91,86,81,30.10,30.05,7,1,8,0.00
2012-11-19,50.8,47.2,42.3,44.0,42.8,40.0,90,84,77,30.18,30.09,2,0,4,0.01
2012-11-20,53.7,43.4,37.9,46.0,40.5,36.0,95,89,74,30.25,30.16,5,0,6,0.00
2012-11-21,50.5,45.1,39.2,45.0,41.6,38.0,94,87,78,30.26,30.20,4,0,5,0.00
2012-11-22,48.2,46.4,45.1,44.0,42.9,42.0,92,87,83,30.31,30.24,3,0,4,0.01
2012-11-23,48.7,46.3,45.2,47.0,44.6,43.0,95,93,90,30.29,30.23,3,0,5,0.03
2012-11-24,53.0,48.8,45.8,47.0,45.6,43.0,94,88,76,30.27,30.23,5,1,8,0.00
2012-11-25,47.3,45.6,44.0,44.0,43.2,42.0,94,91,86,30.22,30.16,5,1,6,0.00
2012-11-26,47.3,46.0,44.6,46.0,43.8,42.0,94,92,89,30.17,29.93,3,0,5,0.01
2012-11-27,61.7,51.0,40.8,48.0,45.0,39.0,94,81,59,29.93,29.80,9,2,18,0.00
2012-11-28,54.9,49.5,46.2,46.0,44.6,43.0,90,83,72,29.79,29.46,5,1,8,0.00
2012-11-29,62.0,51.2,43.2,52.0,45.5,36.0,94,81,59,29.47,29.29,7,1,11,0.13
2012-11-30,48.4,42.3,39.5,37.0,34.6,33.0,79,74,65,29.81,29.45,7,2,12,0.00
2012-12-1,49.9,40.8,34.4,33.0,31.2,28.0,85,70,49,29.99,29.80,6,1,9,0.00
2012-12-2,37.9,36.7,34.1,36.0,34.2,30.0,92,90,84,29.98,29.70,4,0,7,0.27
2012-12-3,41.0,35.0,31.8,33.0,29.1,25.0,92,79,66,29.86,29.68,11,2,16,0.02
2012-12-4,38.2,33.1,28.3,33.0,28.7,24.0,94,84,74,29.85,29.56,8,2,13,0.04
2012-12-5,43.3,34.6,30.3,36.0,32.0,28.0,94,90,74,29.73,29.52,4,0,8,0.17
2012-12-6,38.3,30.2,23.8,31.0,26.0,22.0,92,84,72,29.98,29.73,4,1,12,0.02
2012-12-7,40.8,29.9,23.6,24.0,21.0,18.0,82,70,48,30.02,29.94,4,1,9,0.01
2012-12-8,31.0,27.3,23.8,21.0,18.2,15.0,84,70,52,30.05,29.92,7,2,11,0.00
2012-12-9,36.5,29.0,23.5,19.0,15.9,13.0,72,59,45,30.04,29.93,10,2,16,0.00
2012-12-10,32.3,29.1,26.6,26.0,22.8,19.0,88,77,71,29.92,29.81,4,0,5,0.00
2012-12-11,32.0,28.4,26.1,26.0,23.8,20.0,88,82,77,30.02,29.88,6,1,13,0.01
2012-12-12,34.2,27.8,22.1,24.0,21.1,16.0,83,76,66,30.16,30.00,6,2,13,0.00
2012-12-13,33.6,26.9,20.4,22.0,18.5,16.0,83,71,57,30.26,30.15,6,2,11,0.00
2012-12-14,32.7,29.4,25.1,28.0,23.3,19.0,83,78,72,30.25,30.10,3,1,7,0.00
2012-12-15,37.6,35.1,32.4,36.0,31.9,26.0,94,88,78,30.10,29.89,4,0,6,0.51
2012-12-16,39.1,36.9,35.1,38.0,35.6,34.0,96,95,94,29.99,29.90,3,0,7,0.04
2012-12-17,37.4,36.4,35.3,36.0,35.2,34.0,96,95,95,29.99,29.91,3,0,6,0.03
2012-12-18,42.0,38.5,35.9,39.0,36.7,35.0,95,93,88,30.02,29.90,1,0,4,0.09
2012-12-19,43.5,39.4,35.3,40.0,36.4,33.0,94,89,79,30.18,30.01,4,0,5,0.00
2012-12-20,45.1,35.6,32.5,37.0,32.1,29.0,92,87,73,30.18,30.07,4,0,6,0.00
2012-12-21,32.6,28.1,25.9,31.0,25.6,23.0,93,90,84,30.11,30.01,3,0,5,0.00
2012-12-22,31.6,26.9,19.9,29.0,23.9,17.0,90,88,86,30.25,30.11,4,0,8,0.00
2012-12-23,31.9,30.2,29.2,30.0,28.0,27.0,94,91,87,30.20,30.11,7,2,11,0.06
2012-12-24,34.7,33.1,31.7,33.0,31.6,30.0,95,94,93,30.12,30.06,3,0,5,0.06
2012-12-25,36.8,34.3,32.3,36.0,33.2,31.0,100,95,94,30.06,29.93,2,0,4,0.10
2012-12-26,44.5,38.8,34.4,42.0,37.3,33.0,96,94,87,30.03,29.95,2,0,4,0.20
2012-12-27,53.8,43.8,36.7,41.0,38.6,34.0,94,82,62,30.07,29.88,11,2,16,0.00
2012-12-28,46.0,41.1,32.1,41.0,37.4,28.0,95,87,77,30.44,29.88,7,1,7,0.02
2012-12-29,43.8,34.0,26.2,29.0,21.3,11.0,88,63,26,30.50,30.41,3,0,6,0.00
2012-12-30,37.2,30.6,24.2,30.0,25.9,21.0,92,82,71,30.41,30.30,3,0,5,0.00
2012-12-31,42.6,32.0,26.1,32.0,28.5,23.0,94,87,66,30.39,30.23,4,0,6,0.00
2013-1-1,30.8,28.2,27.3,29.0,26.4,25.0,94,93,89,30.23,30.08,6,2,10,0.01